createdAt,value
2023-04-10T00:01:24.054Z,102130.63
2023-04-10T00:03:50.546Z,102124.88
2023-04-10T00:06:16.993Z,102116.91
2023-04-10T00:08:43.318Z,102117.63
2023-04-10T00:11:09.652Z,102119.00
2023-04-10T00:13:35.990Z,102111.75
2023-04-10T00:16:02.383Z,102114.63
2023-04-10T00:18:28.781Z,102112.34
2023-04-10T00:20:55.125Z,102111.63
2023-04-10T00:23:21.513Z,102103.59
2023-04-10T00:25:48.071Z,102100.09
2023-04-10T00:28:15.653Z,102099.50
2023-04-10T00:30:41.993Z,102101.63
2023-04-10T00:33:08.390Z,102097.97
2023-04-10T00:35:34.807Z,102089.97
2023-04-10T00:38:01.168Z,102087.72
2023-04-10T00:40:29.660Z,102095.59
2023-04-10T00:42:55.994Z,102098.34
2023-04-10T00:45:22.335Z,102089.72
2023-04-10T00:47:48.757Z,102088.19
2023-04-10T00:50:15.316Z,102103.34
2023-04-10T00:52:41.643Z,102098.19
2023-04-10T00:55:08.116Z,102089.56
2023-04-10T00:57:34.699Z,102093.81
2023-04-10T01:00:01.104Z,102093.81
2023-04-10T01:02:27.544Z,102088.69
2023-04-10T01:04:53.957Z,102087.94
2023-04-10T01:07:30.662Z,102084.28
2023-04-10T01:10:02.511Z,102072.78
2023-04-10T01:12:51.391Z,102077.78
2023-04-10T01:15:18.462Z,102081.28
2023-04-10T01:17:52.801Z,102076.28
2023-04-10T01:20:20.600Z,102072.66
2023-04-10T01:23:06.901Z,102079.78
2023-04-10T01:25:39.482Z,102074.78
2023-04-10T01:28:17.144Z,102074.63
2023-04-10T01:30:43.494Z,102079.03
2023-04-10T01:33:10.589Z,102081.03
2023-04-10T01:35:36.956Z,102093.28
2023-04-10T01:38:03.344Z,102087.03
2023-04-10T01:40:29.735Z,102080.53
2023-04-10T01:42:56.209Z,102077.78
2023-04-10T01:45:29.023Z,102071.28
2023-04-10T01:47:55.761Z,102075.06
2023-04-10T01:50:24.243Z,102072.91
2023-04-10T01:52:53.559Z,102073.66
2023-04-10T01:55:22.306Z,102071.56
2023-04-10T01:57:53.567Z,102074.44
2023-04-10T02:00:20.689Z,102074.44
2023-04-10T02:02:47.153Z,102076.53
2023-04-10T02:05:13.730Z,102070.03
2023-04-10T02:07:42.073Z,102080.81
2023-04-10T02:10:21.408Z,102073.56
2023-04-10T02:12:53.493Z,102075.06
2023-04-10T02:15:22.748Z,102077.78
2023-04-10T02:17:49.129Z,102071.28
2023-04-10T02:20:15.459Z,102071.28
2023-04-10T02:22:43.904Z,102064.78
2023-04-10T02:25:10.232Z,102063.28
2023-04-10T02:27:36.613Z,102067.53
2023-04-10T02:30:05.885Z,102071.75
2023-04-10T02:32:34.400Z,102070.25
2023-04-10T02:35:02.067Z,102073.16
2023-04-10T02:37:29.548Z,102074.50
2023-04-10T02:39:56.936Z,102075.88
2023-04-10T02:42:25.152Z,102081.63
2023-04-10T02:44:54.681Z,102074.50
2023-04-10T02:47:22.052Z,102068.75
2023-04-10T02:49:48.725Z,102076.03
2023-04-10T02:52:17.295Z,102066.00
2023-04-10T02:54:43.643Z,102070.41
2023-04-10T02:57:10.283Z,102076.28
2023-04-10T02:59:37.078Z,102079.31
2023-04-10T03:02:05.264Z,102083.53
2023-04-10T03:04:34.891Z,102077.94
2023-04-10T03:07:01.323Z,102086.69
2023-04-10T03:09:27.697Z,102082.28
2023-04-10T03:11:54.057Z,102080.34
2023-04-10T03:14:20.423Z,102083.97
2023-04-10T03:16:47.730Z,102084.09
2023-04-10T03:19:14.270Z,102091.34
2023-04-10T03:21:40.647Z,102080.56
2023-04-10T03:24:07.086Z,102077.09
2023-04-10T03:26:33.449Z,102076.97
2023-04-10T03:28:59.816Z,102069.06
2023-04-10T03:31:26.228Z,102073.34
2023-04-10T03:33:56.040Z,102068.31
2023-04-10T03:36:22.901Z,102074.81
2023-04-10T03:38:49.310Z,102067.59
2023-04-10T03:41:15.629Z,102072.59
2023-04-10T03:43:42.064Z,102068.31
2023-04-10T03:46:08.510Z,102064.84
2023-04-10T03:48:40.749Z,102068.47
2023-04-10T03:51:07.100Z,102065.59
2023-04-10T03:53:36.117Z,102065.72
2023-04-10T03:56:06.391Z,102060.59
2023-04-10T03:58:32.755Z,102067.84
2023-04-10T04:00:59.768Z,102062.72
2023-04-10T04:03:34.002Z,102070.59
2023-04-10T04:06:00.497Z,102064.84
2023-04-10T04:08:38.624Z,102065.59
2023-04-10T04:11:18.209Z,102066.34
2023-04-10T04:14:02.970Z,102068.47
2023-04-10T04:16:47.875Z,102065.59
2023-04-10T04:19:32.559Z,102063.47
2023-04-10T04:22:07.662Z,102065.72
2023-04-10T04:24:52.592Z,102065.72
2023-04-10T04:27:30.831Z,102064.34
2023-04-10T04:30:19.375Z,102072.88
2023-04-10T04:33:05.681Z,102068.41
2023-04-10T04:35:47.039Z,102071.06
2023-04-10T04:38:16.882Z,102076.34
2023-04-10T04:40:59.092Z,102077.84
2023-04-10T04:43:44.251Z,102075.75
2023-04-10T04:46:36.160Z,102078.63
2023-04-10T04:49:38.164Z,102075.75
2023-04-10T04:52:23.643Z,102071.47
2023-04-10T04:55:09.468Z,102074.34
2023-04-10T04:57:54.492Z,102071.47
2023-04-10T05:00:39.386Z,102070.88
2023-04-10T05:03:30.759Z,102071.63
2023-04-10T05:06:18.659Z,102069.47
2023-04-10T05:09:04.821Z,102078.13
2023-04-10T05:12:00.613Z,102081.00
2023-04-10T05:14:46.042Z,102082.84
2023-04-10T05:17:30.860Z,102086.00
2023-04-10T05:20:34.179Z,102080.72
2023-04-10T05:23:17.515Z,102082.38
2023-04-10T05:26:02.591Z,102085.25
2023-04-10T05:28:47.472Z,102086.00
2023-04-10T05:31:35.621Z,102089.00
2023-04-10T05:34:10.951Z,102084.63
2023-04-10T05:36:57.592Z,102084.13
2023-04-10T05:39:45.753Z,102082.63
2023-04-10T05:42:31.834Z,102081.88
2023-04-10T05:45:16.634Z,102084.75
2023-04-10T05:48:14.926Z,102076.13
2023-04-10T05:50:52.171Z,102081.88
2023-04-10T05:53:31.669Z,102079.00
2023-04-10T05:56:21.040Z,102076.88
2023-04-10T05:59:06.608Z,102070.38
2023-04-10T06:01:57.656Z,102073.25
2023-04-10T06:04:24.318Z,102074.75
2023-04-10T06:06:53.499Z,102072.03
2023-04-10T06:09:19.836Z,102072.13
2023-04-10T06:11:46.200Z,102075.00
2023-04-10T06:14:17.456Z,102076.41
2023-04-10T06:16:44.958Z,102069.16
2023-04-10T06:19:11.383Z,102070.38
2023-04-10T06:21:37.781Z,102067.63
2023-04-10T06:24:04.551Z,102066.88
2023-04-10T06:26:30.901Z,102069.16
2023-04-10T06:28:57.244Z,102064.75
2023-04-10T06:31:24.076Z,102059.00
2023-04-10T06:33:50.688Z,102060.63
2023-04-10T06:36:17.189Z,102057.00
2023-04-10T06:38:47.623Z,102057.13
2023-04-10T06:41:13.944Z,102052.13
2023-04-10T06:43:40.335Z,102044.28
2023-04-10T06:46:06.687Z,102057.88
2023-04-10T06:48:33.068Z,102057.88
2023-04-10T06:51:02.139Z,102066.50
2023-04-10T06:53:28.495Z,102069.38
2023-04-10T06:55:54.836Z,102063.63
2023-04-10T06:58:21.221Z,102062.16
2023-04-10T07:00:47.585Z,102067.91
2023-04-10T07:03:14.055Z,102057.88
2023-04-10T07:05:42.071Z,102059.41
2023-04-10T07:08:08.850Z,102058.03
2023-04-10T07:10:35.223Z,102065.28
2023-04-10T07:13:01.568Z,102071.78
2023-04-10T07:15:27.878Z,102068.16
2023-04-10T07:17:54.330Z,102069.66
2023-04-10T07:20:20.712Z,102059.53
2023-04-10T07:22:47.200Z,102072.53
2023-04-10T07:25:14.265Z,102063.91
2023-04-10T07:27:41.127Z,102066.66
2023-04-10T07:30:07.698Z,102066.66
2023-04-10T07:32:34.930Z,102060.75
2023-04-10T07:35:01.421Z,102064.41
2023-04-10T07:37:27.956Z,102063.63
2023-04-10T07:39:54.279Z,102054.88
2023-04-10T07:42:20.599Z,102052.13
2023-04-10T07:44:46.929Z,102050.63
2023-04-10T07:47:13.261Z,102054.88
2023-04-10T07:49:39.640Z,102060.75
2023-04-10T07:52:06.250Z,102050.38
2023-04-10T07:54:34.001Z,102048.59
2023-04-10T07:57:00.332Z,102055.59
2023-04-10T07:59:29.366Z,102052.59
2023-04-10T08:01:56.067Z,102046.56
2023-04-10T08:04:22.623Z,102047.03
2023-04-10T08:06:49.952Z,102046.34
2023-04-10T08:09:16.289Z,102046.19
2023-04-10T08:11:42.622Z,102045.25
2023-04-10T08:14:08.944Z,102035.94
2023-04-10T08:16:35.544Z,102043.53
2023-04-10T08:19:02.065Z,102040.22
2023-04-10T08:21:28.647Z,102033.53
2023-04-10T08:23:55.208Z,102038.47
2023-04-10T08:26:21.560Z,102038.75
2023-04-10T08:28:51.175Z,102027.66
2023-04-10T08:31:17.848Z,102026.63
2023-04-10T08:33:44.230Z,102025.88
2023-04-10T08:36:10.706Z,102017.31
2023-04-10T08:38:37.073Z,102025.03
2023-04-10T08:41:03.640Z,102022.22
2023-04-10T08:43:30.227Z,102021.91
2023-04-10T08:45:56.554Z,102020.19
2023-04-10T08:48:22.924Z,102014.28
2023-04-10T08:50:49.243Z,102012.97
2023-04-10T08:53:15.943Z,102015.03
2023-04-10T08:55:42.310Z,102011.84
2023-04-10T08:58:08.636Z,102011.38
2023-04-10T09:00:35.231Z,102002.63
2023-04-10T09:03:04.817Z,101994.94
2023-04-10T09:05:31.226Z,101992.97
2023-04-10T09:07:57.571Z,101984.50
2023-04-10T09:10:23.900Z,101985.97
2023-04-10T09:12:50.288Z,101987.56
2023-04-10T09:15:16.635Z,101980.06
2023-04-10T09:17:59.217Z,101986.66
2023-04-10T09:20:26.159Z,101976.16
2023-04-10T09:22:52.621Z,101978.03
2023-04-10T09:25:38.969Z,101974.13
2023-04-10T09:28:06.166Z,101970.38
2023-04-10T09:30:41.519Z,101967.59
2023-04-10T09:33:27.821Z,101966.09
2023-04-10T09:35:54.284Z,101951.31
2023-04-10T09:38:21.047Z,101951.19
2023-04-10T09:40:48.046Z,101949.56
2023-04-10T09:43:21.374Z,101940.94
2023-04-10T09:45:48.221Z,101937.41
2023-04-10T09:48:14.564Z,101935.03
2023-04-10T09:50:41.017Z,101935.41
2023-04-10T09:53:11.531Z,101928.94
2023-04-10T09:55:37.880Z,101923.69
2023-04-10T09:58:04.453Z,101914.81
2023-04-10T10:00:30.892Z,101924.06
2023-04-10T10:02:57.998Z,101919.97
2023-04-10T10:05:30.324Z,101917.09
2023-04-10T10:07:57.101Z,101901.94
2023-04-10T10:10:24.161Z,101911.19
2023-04-10T10:12:51.901Z,101897.72
2023-04-10T10:15:21.220Z,101897.34
2023-04-10T10:18:11.085Z,101892.31
2023-04-10T10:20:38.118Z,101888.97
2023-04-10T10:23:04.461Z,101878.72
2023-04-10T10:25:31.391Z,101881.47
2023-04-10T10:27:57.751Z,101879.94
2023-04-10T10:30:30.082Z,101867.72
2023-04-10T10:32:58.249Z,101867.09
2023-04-10T10:35:26.366Z,101867.22
2023-04-10T10:37:53.920Z,101866.84
2023-04-10T10:40:25.252Z,101861.50
2023-04-10T10:43:01.561Z,101855.00
2023-04-10T10:45:31.538Z,101843.44
2023-04-10T10:47:57.930Z,101846.84
2023-04-10T10:50:24.846Z,101850.72
2023-04-10T10:52:57.246Z,101842.09
2023-04-10T10:55:27.495Z,101840.72
2023-04-10T10:57:54.348Z,101839.22
2023-04-10T11:00:21.142Z,101819.97
2023-04-10T11:03:13.587Z,101830.25
2023-04-10T11:05:56.175Z,101829.75
2023-04-10T11:08:35.305Z,101831.47
2023-04-10T11:11:08.229Z,101823.63
2023-04-10T11:13:34.937Z,101814.75
2023-04-10T11:16:02.825Z,101806.84
2023-04-10T11:18:44.340Z,101798.94
2023-04-10T11:21:11.270Z,101803.91
2023-04-10T11:23:49.766Z,101795.41
2023-04-10T11:26:43.706Z,101793.66
2023-04-10T11:29:14.187Z,101790.66
2023-04-10T11:31:40.580Z,101790.78
2023-04-10T11:34:07.749Z,101778.19
2023-04-10T11:36:34.429Z,101774.94
2023-04-10T11:39:10.276Z,101775.03
2023-04-10T11:41:37.368Z,101772.94
2023-04-10T11:44:04.467Z,101772.44
2023-04-10T11:46:30.967Z,101769.28
2023-04-10T11:49:01.233Z,101761.44
2023-04-10T11:51:28.317Z,101761.44
2023-04-10T11:54:07.416Z,101756.91
2023-04-10T11:56:33.760Z,101752.03
2023-04-10T11:59:00.169Z,101743.69
2023-04-10T12:01:27.080Z,101742.34
2023-04-10T12:03:53.588Z,101735.47
2023-04-10T12:06:20.117Z,101737.19
2023-04-10T12:08:47.858Z,101725.69
2023-04-10T12:11:14.695Z,101716.47
2023-04-10T12:13:41.150Z,101714.84
2023-04-10T12:16:08.020Z,101706.44
2023-04-10T12:18:34.514Z,101704.47
2023-04-10T12:21:00.949Z,101705.34
2023-04-10T12:23:27.581Z,101699.47
2023-04-10T12:25:54.387Z,101698.19
2023-04-10T12:28:21.415Z,101698.19
2023-04-10T12:30:53.071Z,101691.69
2023-04-10T12:33:22.923Z,101696.94
2023-04-10T12:35:49.387Z,101686.94
2023-04-10T12:38:15.865Z,101671.19
2023-04-10T12:40:57.609Z,101672.06
2023-04-10T12:43:33.954Z,101662.69
2023-04-10T12:46:00.631Z,101659.91
2023-04-10T12:48:27.056Z,101657.69
2023-04-10T12:50:53.397Z,101652.94
2023-04-10T12:53:19.732Z,101651.41
2023-04-10T12:55:59.358Z,101648.66
2023-04-10T12:58:28.394Z,101645.78
2023-04-10T13:00:56.154Z,101633.25
2023-04-10T13:03:22.707Z,101628.13
2023-04-10T13:05:49.239Z,101618.88
2023-04-10T13:08:15.550Z,101613.88
2023-04-10T13:10:43.439Z,101604.13
2023-04-10T13:13:11.934Z,101601.53
2023-04-10T13:15:38.953Z,101587.75
2023-04-10T13:18:08.370Z,101590.38
2023-04-10T13:20:35.632Z,101589.34
2023-04-10T13:23:05.017Z,101589.69
2023-04-10T13:25:33.170Z,101580.16
2023-04-10T13:28:00.637Z,101583.66
2023-04-10T13:30:27.343Z,101567.06
2023-04-10T13:32:53.668Z,101567.41
2023-04-10T13:35:20.006Z,101562.09
2023-04-10T13:37:46.479Z,101555.13
2023-04-10T13:40:12.799Z,101548.13
2023-04-10T13:42:41.228Z,101547.91
2023-04-10T13:45:08.506Z,101550.47
2023-04-10T13:47:34.847Z,101533.81
2023-04-10T13:50:01.176Z,101534.53
2023-04-10T13:52:27.521Z,101527.59
2023-04-10T13:54:53.844Z,101525.75
2023-04-10T13:57:20.181Z,101531.88
2023-04-10T13:59:46.504Z,101518.97
2023-04-10T14:02:12.894Z,101505.94
2023-04-10T14:04:39.251Z,101513.09
2023-04-10T14:07:05.972Z,101515.03
2023-04-10T14:09:32.353Z,101510.13
2023-04-10T14:11:58.710Z,101510.34
2023-04-10T14:14:25.219Z,101505.94
2023-04-10T14:16:51.606Z,101495.59
2023-04-10T14:19:17.924Z,101498.72
2023-04-10T14:21:44.500Z,101494.22
2023-04-10T14:24:10.967Z,101492.72
2023-04-10T14:26:37.326Z,101487.94
2023-04-10T14:29:03.656Z,101482.81
2023-04-10T14:31:30.026Z,101481.44
2023-04-10T14:33:56.427Z,101472.91
2023-04-10T14:36:22.870Z,101464.16
2023-04-10T14:38:49.270Z,101476.31
2023-04-10T14:41:16.120Z,101465.41
2023-04-10T14:43:43.611Z,101466.94
2023-04-10T14:46:11.036Z,101460.44
2023-04-10T14:48:37.528Z,101447.41
2023-04-10T14:51:05.392Z,101455.31
2023-04-10T14:53:31.712Z,101443.69
2023-04-10T14:55:58.026Z,101443.78
2023-04-10T14:58:24.416Z,101442.38
2023-04-10T15:00:51.811Z,101430.78
2023-04-10T15:03:18.245Z,101427.81
2023-04-10T15:05:44.711Z,101427.16
2023-04-10T15:08:11.041Z,101421.38
2023-04-10T15:10:37.363Z,101421.38
2023-04-10T15:13:03.756Z,101420.88
2023-04-10T15:15:30.117Z,101413.59
2023-04-10T15:17:56.491Z,101406.34
2023-04-10T15:20:22.914Z,101404.88
2023-04-10T15:22:49.231Z,101420.13
2023-04-10T15:25:15.557Z,101404.88
2023-04-10T15:27:41.924Z,101393.25
2023-04-10T15:30:08.403Z,101387.59
2023-04-10T15:32:36.472Z,101383.44
2023-04-10T15:35:02.834Z,101376.09
2023-04-10T15:37:29.168Z,101381.84
2023-04-10T15:39:55.599Z,101370.41
2023-04-10T15:42:21.936Z,101368.94
2023-04-10T15:44:49.109Z,101360.28
2023-04-10T15:47:15.697Z,101364.66
2023-04-10T15:49:42.303Z,101352.28
2023-04-10T15:52:08.690Z,101348.03
2023-04-10T15:54:35.175Z,101348.03
2023-04-10T15:57:02.229Z,101333.00
2023-04-10T15:59:28.755Z,101322.97
2023-04-10T16:01:55.284Z,101330.03
2023-04-10T16:04:21.764Z,101318.50
2023-04-10T16:06:48.186Z,101314.25
2023-04-10T16:09:24.840Z,101308.59
2023-04-10T16:11:54.982Z,101318.69
2023-04-10T16:14:22.245Z,101304.13
2023-04-10T16:16:48.563Z,101302.84
2023-04-10T16:19:14.892Z,101299.22
2023-04-10T16:21:42.651Z,101294.19
2023-04-10T16:24:09.004Z,101295.66
2023-04-10T16:26:35.318Z,101293.44
2023-04-10T16:29:01.697Z,101299.84
2023-04-10T16:31:28.165Z,101287.81
2023-04-10T16:33:54.506Z,101288.44
2023-04-10T16:36:20.839Z,101275.34
2023-04-10T16:38:49.813Z,101278.22
2023-04-10T16:41:20.753Z,101270.94
2023-04-10T16:43:47.394Z,101273.94
2023-04-10T16:46:13.771Z,101268.38
2023-04-10T16:48:52.548Z,101265.50
2023-04-10T16:51:18.944Z,101259.66
2023-04-10T16:53:45.318Z,101247.38
2023-04-10T16:56:11.670Z,101238.75
2023-04-10T16:58:38.514Z,101235.09
2023-04-10T17:01:18.151Z,101223.59
2023-04-10T17:03:44.891Z,101222.13
2023-04-10T17:06:11.276Z,101227.97
2023-04-10T17:08:37.717Z,101223.50
2023-04-10T17:11:04.167Z,101211.09
2023-04-10T17:13:30.684Z,101214.34
2023-04-10T17:15:57.220Z,101217.56
2023-04-10T17:18:23.747Z,101211.13
2023-04-10T17:20:50.204Z,101197.50
2023-04-10T17:23:16.542Z,101199.09
2023-04-10T17:25:42.868Z,101198.34
2023-04-10T17:28:09.206Z,101188.22
2023-04-10T17:30:35.577Z,101181.81
2023-04-10T17:33:01.938Z,101179.03
2023-04-10T17:35:28.307Z,101172.53
2023-04-10T17:37:54.640Z,101162.31
2023-04-10T17:40:21.182Z,101173.19
2023-04-10T17:42:47.629Z,101161.75
2023-04-10T17:45:13.958Z,101162.50
2023-04-10T17:47:40.482Z,101156.53
2023-04-10T17:50:07.165Z,101155.47
2023-04-10T17:52:33.518Z,101150.44
2023-04-10T17:55:01.098Z,101149.50
2023-04-10T17:57:27.428Z,101143.19
2023-04-10T17:59:53.743Z,101140.81
2023-04-10T18:02:20.313Z,101149.56
2023-04-10T18:04:46.680Z,101153.38
2023-04-10T18:07:13.030Z,101147.06
2023-04-10T18:09:39.461Z,101144.84
2023-04-10T18:12:32.361Z,101129.78
2023-04-10T18:15:16.823Z,101139.84
2023-04-10T18:18:23.765Z,101139.84
2023-04-10T18:21:08.215Z,101145.50
2023-04-10T18:23:43.095Z,101144.09
2023-04-10T18:26:11.639Z,101144.09
2023-04-10T18:28:38.884Z,101146.31
2023-04-10T18:31:05.377Z,101147.06
2023-04-10T18:33:31.744Z,101137.06
2023-04-10T18:35:59.091Z,101132.56
2023-04-10T18:38:25.959Z,101135.34
2023-04-10T18:40:55.951Z,101136.84
2023-04-10T18:43:25.252Z,101129.78
2023-04-10T18:45:51.642Z,101123.31
2023-04-10T18:48:18.134Z,101113.25
2023-04-10T18:50:44.570Z,101108.16
2023-04-10T18:53:10.923Z,101098.78
2023-04-10T18:55:37.245Z,101100.91
2023-04-10T18:58:03.561Z,101095.91
2023-04-10T19:00:31.917Z,101090.78
2023-04-10T19:02:58.389Z,101093.69
2023-04-10T19:05:24.797Z,101085.03
2023-04-10T19:08:02.991Z,101083.53
2023-04-10T19:10:32.972Z,101083.53
2023-04-10T19:12:59.291Z,101085.03
2023-04-10T19:15:25.624Z,101074.16
2023-04-10T19:17:52.365Z,101067.69
2023-04-10T19:20:18.714Z,101071.97
2023-04-10T19:23:05.027Z,101071.97
2023-04-10T19:25:31.407Z,101064.06
2023-04-10T19:27:57.836Z,101057.56
2023-04-10T19:30:24.189Z,101055.31
2023-04-10T19:32:50.570Z,101049.56
2023-04-10T19:35:16.923Z,101045.94
2023-04-10T19:37:43.277Z,101049.56
2023-04-10T19:40:09.701Z,101047.31
2023-04-10T19:42:36.014Z,101041.56
2023-04-10T19:45:02.348Z,101030.78
2023-04-10T19:47:28.736Z,101029.31
2023-04-10T19:49:55.073Z,101032.19
2023-04-10T19:52:21.430Z,101011.31
2023-04-10T19:54:47.764Z,101010.59
2023-04-10T19:57:14.086Z,101012.06
2023-04-10T19:59:40.406Z,101004.06
2023-04-10T20:02:07.011Z,100999.72
2023-04-10T20:04:33.541Z,100998.19
2023-04-10T20:07:00.032Z,100989.56
2023-04-10T20:09:26.445Z,100983.81
2023-04-10T20:11:52.786Z,100975.19
2023-04-10T20:14:19.115Z,100978.06
2023-04-10T20:16:46.274Z,100970.19
2023-04-10T20:19:12.612Z,100960.06
2023-04-10T20:21:38.964Z,100954.31
2023-04-10T20:24:05.281Z,100955.03
2023-04-10T20:26:31.851Z,100947.06
2023-04-10T20:28:58.259Z,100946.34
2023-04-10T20:31:24.665Z,100941.97
2023-04-10T20:33:51.013Z,100946.34
2023-04-10T20:36:17.714Z,100949.22
2023-04-10T20:38:44.146Z,100944.84
2023-04-10T20:41:13.118Z,100951.31
2023-04-10T20:43:39.837Z,100949.84
2023-04-10T20:46:06.644Z,100956.25
2023-04-10T20:48:32.973Z,100951.16
2023-04-10T20:50:59.317Z,100940.38
2023-04-10T20:53:26.574Z,100946.16
2023-04-10T20:55:55.857Z,100936.09
2023-04-10T20:58:22.227Z,100931.66
2023-04-10T21:00:54.483Z,100927.38
2023-04-10T21:03:21.346Z,100933.13
2023-04-10T21:05:47.787Z,100930.16
2023-04-10T21:08:14.891Z,100925.91
2023-04-10T21:10:44.315Z,100925.91
2023-04-10T21:13:11.706Z,100927.38
2023-04-10T21:15:38.022Z,100925.91
2023-04-10T21:18:04.358Z,100920.88
2023-04-10T21:20:30.978Z,100921.63
2023-04-10T21:22:57.338Z,100914.41
2023-04-10T21:25:24.099Z,100915.88
2023-04-10T21:27:50.528Z,100915.88
2023-04-10T21:30:17.043Z,100897.88
2023-04-10T21:32:43.455Z,100907.91
2023-04-10T21:35:12.825Z,100889.88
2023-04-10T21:37:39.176Z,100888.41
2023-04-10T21:40:06.002Z,100879.88
2023-04-10T21:42:33.335Z,100879.88
2023-04-10T21:45:00.471Z,100874.84
2023-04-10T21:47:26.812Z,100869.81
2023-04-10T21:49:53.223Z,100866.22
2023-04-10T21:52:19.550Z,100863.34
2023-04-10T21:54:45.937Z,100851.09
2023-04-10T21:57:12.278Z,100846.81
2023-04-10T21:59:38.653Z,100851.81
2023-04-10T22:02:05.119Z,100845.34
2023-04-10T22:04:33.081Z,100847.56
2023-04-10T22:06:59.498Z,100839.59
2023-04-10T22:09:25.846Z,100840.97
2023-04-10T22:11:52.154Z,100839.59
2023-04-10T22:14:20.756Z,100831.69
2023-04-10T22:16:47.811Z,100836.72
2023-04-10T22:19:16.794Z,100820.81
2023-04-10T22:21:43.156Z,100820.81
2023-04-10T22:24:09.587Z,100822.31
2023-04-10T22:26:36.083Z,100814.34
2023-04-10T22:29:03.471Z,100800.69
2023-04-10T22:31:29.821Z,100815.06
2023-04-10T22:33:56.163Z,100803.56
2023-04-10T22:36:22.574Z,100796.34
2023-04-10T22:38:48.895Z,100808.56
2023-04-10T22:41:15.210Z,100797.06
2023-04-10T22:43:41.538Z,100797.81
2023-04-10T22:46:07.898Z,100794.94
2023-04-10T22:48:34.333Z,100786.28
2023-04-10T22:51:00.808Z,100786.28
2023-04-10T22:53:28.617Z,100782.69
2023-04-10T22:55:55.062Z,100772.59
2023-04-10T22:58:21.370Z,100776.19
2023-04-10T23:00:47.866Z,100766.16
2023-04-10T23:03:14.298Z,100763.28
2023-04-10T23:05:40.821Z,100758.94
2023-04-10T23:08:07.162Z,100751.03
2023-04-10T23:10:33.519Z,100743.06
2023-04-10T23:12:59.892Z,100736.56
2023-04-10T23:15:26.277Z,100725.81
2023-04-10T23:17:52.738Z,100724.31
2023-04-10T23:20:19.091Z,100728.59
2023-04-10T23:22:45.527Z,100711.34
2023-04-10T23:25:11.869Z,100704.81
2023-04-10T23:27:38.650Z,100703.34
2023-04-10T23:30:05.221Z,100682.47
2023-04-10T23:32:31.582Z,100686.09
2023-04-10T23:34:57.994Z,100681.06
2023-04-10T23:37:24.308Z,100683.94
2023-04-10T23:39:50.647Z,100668.75
2023-04-10T23:42:16.960Z,100674.59
2023-04-10T23:44:43.261Z,100666.59
2023-04-10T23:47:09.571Z,100668.09
2023-04-10T23:49:36.066Z,100658.13
2023-04-10T23:52:02.458Z,100652.47
2023-04-10T23:54:29.199Z,100651.00
2023-04-10T23:56:55.559Z,100637.28
2023-04-10T23:59:21.867Z,100635.78
